createdAt,value
2018-12-06T00:00:17.807Z,100566.02
2018-12-06T00:02:43.983Z,100521.20
2018-12-06T00:05:10.190Z,100575.61
2018-12-06T00:07:36.307Z,100573.83
2018-12-06T00:10:02.692Z,100573.79
2018-12-06T00:12:28.762Z,100580.83
2018-12-06T00:15:06.908Z,100576.85
2018-12-06T00:17:33.032Z,100577.69
2018-12-06T00:19:59.232Z,100585.53
2018-12-06T00:22:25.348Z,100584.22
2018-12-06T00:24:51.533Z,100584.62
2018-12-06T00:27:17.793Z,100583.30
2018-12-06T00:29:47.934Z,100583.30
2018-12-06T00:32:14.037Z,100583.78
2018-12-06T00:34:40.134Z,100588.12
2018-12-06T00:37:06.354Z,100589.00
2018-12-06T00:39:32.470Z,100584.66
2018-12-06T00:41:58.627Z,100588.59
2018-12-06T00:44:25.012Z,100584.66
2018-12-06T00:46:51.143Z,100585.09
2018-12-06T00:49:17.268Z,100595.99
2018-12-06T00:51:43.328Z,100588.55
2018-12-06T00:54:09.433Z,100595.12
2018-12-06T00:56:35.505Z,100592.49
2018-12-06T00:59:16.493Z,100587.68
2018-12-06T01:01:42.630Z,100599.09
2018-12-06T01:04:08.744Z,100599.97
2018-12-06T01:06:34.830Z,100610.90
2018-12-06T01:09:01.063Z,100608.27
2018-12-06T01:11:27.449Z,100618.73
2018-12-06T01:13:53.529Z,100617.46
2018-12-06T01:16:19.645Z,100615.64
2018-12-06T01:18:45.740Z,100627.48
2018-12-06T01:21:11.862Z,100627.48
2018-12-06T01:23:37.997Z,100637.95
2018-12-06T01:26:04.067Z,100634.48
2018-12-06T01:28:30.199Z,100635.33
2018-12-06T01:30:56.241Z,100637.55
2018-12-06T01:33:22.298Z,100646.30
2018-12-06T01:35:48.463Z,100653.27
2018-12-06T01:38:14.607Z,100648.92
2018-12-06T01:40:40.769Z,100639.30
2018-12-06T01:43:06.902Z,100645.02
2018-12-06T01:45:33.107Z,100654.23
2018-12-06T01:47:59.214Z,100651.64
2018-12-06T01:50:25.365Z,100664.77
2018-12-06T01:52:51.488Z,100666.92
2018-12-06T01:55:17.662Z,100670.48
2018-12-06T01:57:43.803Z,100680.11
2018-12-06T02:00:10.173Z,100673.98
2018-12-06T02:02:36.452Z,100670.48
2018-12-06T02:05:03.000Z,100674.42
2018-12-06T02:07:29.277Z,100677.95
2018-12-06T02:09:55.414Z,100671.83
2018-12-06T02:12:21.529Z,100680.14
2018-12-06T02:14:47.836Z,100681.92
2018-12-06T02:17:13.925Z,100688.05
2018-12-06T02:19:40.026Z,100680.64
2018-12-06T02:22:06.174Z,100661.25
2018-12-06T02:24:35.175Z,100691.58
2018-12-06T02:27:01.289Z,100695.58
2018-12-06T02:29:29.526Z,100690.36
2018-12-06T02:31:55.619Z,100690.39
2018-12-06T02:34:21.703Z,100696.95
2018-12-06T02:36:47.799Z,100690.42
2018-12-06T02:39:13.854Z,100696.58
2018-12-06T02:41:39.919Z,100693.95
2018-12-06T02:44:06.124Z,100698.73
2018-12-06T02:46:32.358Z,100693.51
2018-12-06T02:48:58.433Z,100704.03
2018-12-06T02:51:24.604Z,100707.13
2018-12-06T02:53:50.725Z,100708.44
2018-12-06T02:56:16.811Z,100702.75
2018-12-06T02:58:42.982Z,100711.06
2018-12-06T03:01:09.075Z,100713.28
2018-12-06T03:03:35.196Z,100714.16
2018-12-06T03:06:01.292Z,100717.22
2018-12-06T03:08:27.548Z,100714.19
2018-12-06T03:10:53.739Z,100718.99
2018-12-06T03:13:19.902Z,100722.09
2018-12-06T03:15:46.023Z,100717.30
2018-12-06T03:18:12.113Z,100715.12
2018-12-06T03:20:39.398Z,100719.92
2018-12-06T03:23:05.442Z,100723.45
2018-12-06T03:25:31.762Z,100721.30
2018-12-06T03:27:57.805Z,100716.52
2018-12-06T03:30:23.893Z,100713.92
2018-12-06T03:32:50.039Z,100717.45
2018-12-06T03:35:16.113Z,100724.91
2018-12-06T03:37:42.332Z,100724.53
2018-12-06T03:40:08.589Z,100723.25
2018-12-06T03:42:34.687Z,100724.56
2018-12-06T03:45:00.757Z,100727.21
2018-12-06T03:47:27.066Z,100725.93
2018-12-06T03:49:53.183Z,100727.71
2018-12-06T03:52:22.032Z,100731.20
2018-12-06T03:54:48.130Z,100726.87
2018-12-06T03:57:14.215Z,100728.61
2018-12-06T03:59:40.274Z,100732.14
2018-12-06T04:02:06.357Z,100728.23
2018-12-06T04:04:32.551Z,100729.11
2018-12-06T04:06:58.656Z,100735.22
2018-12-06T04:09:24.766Z,100737.84
2018-12-06T04:11:50.869Z,100736.56
2018-12-06T04:14:16.976Z,100739.19
2018-12-06T04:16:43.022Z,100738.78
2018-12-06T04:19:09.213Z,100741.40
2018-12-06T04:21:35.269Z,100739.65
2018-12-06T04:24:01.333Z,100747.11
2018-12-06T04:26:27.463Z,100744.52
2018-12-06T04:28:53.574Z,100751.06
2018-12-06T04:31:19.681Z,100752.41
2018-12-06T04:33:45.829Z,100757.24
2018-12-06T04:36:11.954Z,100759.42
2018-12-06T04:38:38.000Z,100764.23
2018-12-06T04:41:04.156Z,100764.26
2018-12-06T04:43:30.268Z,100762.98
2018-12-06T04:45:56.430Z,100763.85
2018-12-06T04:48:22.639Z,100761.26
2018-12-06T04:50:48.742Z,100765.63
2018-12-06T04:53:14.831Z,100765.65
2018-12-06T04:55:40.958Z,100766.08
2018-12-06T04:58:07.067Z,100768.27
2018-12-06T05:00:33.205Z,100771.77
2018-12-06T05:02:59.337Z,100775.26
2018-12-06T05:05:25.434Z,100769.23
2018-12-06T05:07:51.651Z,100770.09
2018-12-06T05:10:17.905Z,100783.70
2018-12-06T05:12:43.990Z,100778.02
2018-12-06T05:15:10.151Z,100778.06
2018-12-06T05:17:36.245Z,100779.37
2018-12-06T05:20:02.561Z,100779.34
2018-12-06T05:22:28.706Z,100775.88
2018-12-06T05:24:54.845Z,100778.94
2018-12-06T05:27:20.915Z,100781.12
2018-12-06T05:29:46.990Z,100787.23
2018-12-06T05:32:13.044Z,100783.77
2018-12-06T05:34:39.187Z,100789.45
2018-12-06T05:37:05.368Z,100796.03
2018-12-06T05:39:31.501Z,100796.93
2018-12-06T05:41:57.648Z,100798.23
2018-12-06T05:44:23.798Z,100798.67
2018-12-06T05:46:49.894Z,100802.61
2018-12-06T05:49:16.346Z,100804.35
2018-12-06T05:51:42.550Z,100812.23
2018-12-06T05:54:08.645Z,100807.48
2018-12-06T05:56:34.662Z,100812.31
2018-12-06T05:59:00.715Z,100812.74
2018-12-06T06:01:26.781Z,100814.03
2018-12-06T06:03:52.899Z,100814.50
2018-12-06T06:06:18.964Z,100820.61
2018-12-06T06:08:51.940Z,100825.88
2018-12-06T06:11:18.057Z,100822.43
2018-12-06T06:13:44.189Z,100828.10
2018-12-06T06:16:10.255Z,100827.67
2018-12-06T06:18:36.359Z,100832.47
2018-12-06T06:21:02.456Z,100834.27
2018-12-06T06:23:28.590Z,100836.47
2018-12-06T06:25:54.693Z,100830.84
2018-12-06T06:28:20.840Z,100836.10
2018-12-06T06:30:46.907Z,100837.84
2018-12-06T06:33:12.945Z,100840.47
2018-12-06T06:35:39.020Z,100850.54
2018-12-06T06:38:05.093Z,100855.77
2018-12-06T06:40:31.352Z,100855.37
2018-12-06T06:42:57.519Z,100859.30
2018-12-06T06:45:23.617Z,100864.97
2018-12-06T06:47:56.552Z,100870.64
2018-12-06T06:50:22.862Z,100870.23
2018-12-06T06:52:50.411Z,100876.34
2018-12-06T06:55:16.741Z,100869.35
2018-12-06T06:57:42.958Z,100874.16
2018-12-06T07:00:09.281Z,100882.92
2018-12-06T07:02:35.446Z,100882.50
2018-12-06T07:05:01.550Z,100888.20
2018-12-06T07:07:28.214Z,100885.99
2018-12-06T07:09:54.367Z,100893.85
2018-12-06T07:12:20.495Z,100894.28
2018-12-06T07:14:46.653Z,100892.55
2018-12-06T07:17:12.725Z,100897.35
2018-12-06T07:19:38.825Z,100896.04
2018-12-06T07:22:04.967Z,100899.99
2018-12-06T07:24:31.100Z,100896.92
2018-12-06T07:26:57.232Z,100898.70
2018-12-06T07:29:23.459Z,100898.26
2018-12-06T07:31:49.614Z,100900.89
2018-12-06T07:34:15.654Z,100899.22
2018-12-06T07:36:41.779Z,100899.25
2018-12-06T07:39:08.073Z,100901.89
2018-12-06T07:41:34.228Z,100898.84
2018-12-06T07:44:00.346Z,100898.14
2018-12-06T07:46:26.439Z,100902.50
2018-12-06T07:52:26.727Z,100909.91
2018-12-06T07:54:52.843Z,100916.88
2018-12-06T07:57:18.960Z,100919.09
2018-12-06T07:59:45.071Z,100927.79
2018-12-06T08:02:11.188Z,100925.17
2018-12-06T08:04:37.276Z,100926.50
2018-12-06T08:07:03.549Z,100926.10
2018-12-06T08:09:29.689Z,100932.67
2018-12-06T08:11:55.747Z,100934.00
2018-12-06T08:14:21.835Z,100942.28
2018-12-06T08:16:47.940Z,100941.44
2018-12-06T08:19:14.125Z,100944.92
2018-12-06T08:21:40.297Z,100951.47
2018-12-06T08:24:06.354Z,100955.41
2018-12-06T08:26:32.437Z,100959.81
2018-12-06T08:28:58.591Z,100970.32
2018-12-06T08:31:24.724Z,100962.09
2018-12-06T08:33:50.785Z,100969.09
2018-12-06T08:36:16.924Z,100974.80
2018-12-06T08:38:43.001Z,100982.69
2018-12-06T08:41:09.090Z,100981.42
2018-12-06T08:43:35.193Z,100979.69
2018-12-06T08:46:01.269Z,100982.78
2018-12-06T08:48:27.331Z,100983.20
2018-12-06T08:50:53.397Z,100989.34
2018-12-06T08:53:19.688Z,100991.48
2018-12-06T08:55:45.792Z,100994.53
2018-12-06T08:58:11.899Z,100994.92
2018-12-06T09:00:37.990Z,100994.03
2018-12-06T09:05:56.754Z,101005.78
2018-12-06T09:08:22.920Z,101007.08
2018-12-06T09:10:51.663Z,101007.95
2018-12-06T09:13:17.083Z,101002.30
2018-12-06T09:15:43.174Z,100999.69
2018-12-06T09:18:09.288Z,101005.35
2018-12-06T09:20:35.472Z,101007.97
2018-12-06T09:23:01.563Z,101010.59
2018-12-06T09:25:27.659Z,101016.70
2018-12-06T09:27:53.722Z,101014.93
2018-12-06T09:30:19.821Z,101015.81
2018-12-06T09:32:45.868Z,101017.13
2018-12-06T09:35:12.062Z,101020.61
2018-12-06T09:37:38.136Z,101021.45
2018-12-06T09:40:04.477Z,101028.86
2018-12-06T09:42:30.603Z,101026.23
2018-12-06T09:44:56.632Z,101027.10
2018-12-06T09:47:22.841Z,101024.00
2018-12-06T09:49:48.951Z,100981.95
2018-12-06T09:52:15.038Z,101026.64
2018-12-06T09:54:43.114Z,101034.49
2018-12-06T09:57:09.464Z,101024.02
2018-12-06T09:59:35.572Z,101021.41
2018-12-06T10:02:01.716Z,101025.33
2018-12-06T10:04:27.806Z,101024.91
2018-12-06T10:06:53.879Z,101031.02
2018-12-06T10:09:19.999Z,101034.94
2018-12-06T10:11:46.113Z,101043.23
2018-12-06T10:14:12.182Z,101041.91
2018-12-06T10:16:38.336Z,101043.21
2018-12-06T10:19:04.503Z,101040.16
2018-12-06T10:21:30.538Z,101037.08
2018-12-06T10:23:56.668Z,101037.96
2018-12-06T10:26:22.806Z,101042.77
2018-12-06T10:28:48.871Z,101041.02
2018-12-06T10:31:14.969Z,101037.08
2018-12-06T10:33:41.047Z,101043.63
2018-12-06T10:36:07.126Z,101040.16
2018-12-06T10:38:33.255Z,101038.84
2018-12-06T10:40:59.372Z,101044.08
2018-12-06T10:43:25.438Z,101046.23
2018-12-06T10:45:51.474Z,101030.17
2018-12-06T10:48:17.550Z,101052.31
2018-12-06T10:50:43.636Z,101054.51
2018-12-06T10:53:09.830Z,101051.89
2018-12-06T10:55:36.145Z,101048.83
2018-12-06T10:58:03.057Z,101052.29
2018-12-06T11:00:35.157Z,101049.23
2018-12-06T11:03:07.124Z,101048.33
2018-12-06T11:05:33.206Z,101041.79
2018-12-06T11:07:59.287Z,101037.00
2018-12-06T11:10:25.433Z,101035.23
2018-12-06T11:12:51.592Z,101038.30
2018-12-06T11:15:17.738Z,101041.34
2018-12-06T11:17:43.833Z,101040.03
2018-12-06T11:20:09.920Z,101030.87
2018-12-06T11:22:36.018Z,101031.27
2018-12-06T11:25:02.403Z,101030.42
2018-12-06T11:27:28.504Z,101029.09
2018-12-06T11:29:54.577Z,101030.41
2018-12-06T11:32:20.667Z,101036.48
2018-12-06T11:37:24.852Z,101039.09
2018-12-06T11:39:50.909Z,101039.54
2018-12-06T11:42:17.062Z,101035.13
2018-12-06T11:44:43.204Z,101037.32
2018-12-06T11:47:09.277Z,101028.59
2018-12-06T11:49:35.345Z,101032.52
2018-12-06T11:52:01.386Z,101032.50
2018-12-06T11:54:27.457Z,101037.73
2018-12-06T11:56:53.793Z,101029.87
2018-12-06T11:59:19.856Z,101026.81
2018-12-06T12:01:45.897Z,101033.79
2018-12-06T12:04:11.953Z,101025.94
2018-12-06T12:06:38.032Z,101032.93
2018-12-06T12:09:05.471Z,101026.83
2018-12-06T12:11:31.564Z,101024.64
2018-12-06T12:13:57.587Z,101024.64
2018-12-06T12:16:23.620Z,101024.64
2018-12-06T12:18:49.654Z,101029.89
2018-12-06T12:21:15.786Z,101038.63
2018-12-06T12:23:41.896Z,101046.09
2018-12-06T12:26:07.963Z,101043.91
2018-12-06T12:28:34.057Z,101046.55
2018-12-06T12:31:00.148Z,101050.48
2018-12-06T12:33:26.248Z,101044.83
2018-12-06T12:35:52.348Z,101043.95
2018-12-06T12:38:18.409Z,101036.50
2018-12-06T12:40:44.509Z,101043.50
2018-12-06T12:43:10.598Z,101040.42
2018-12-06T12:45:36.663Z,101043.50
2018-12-06T12:48:02.805Z,101039.12
2018-12-06T12:50:28.842Z,101042.20
2018-12-06T12:52:54.979Z,101040.91
2018-12-06T12:55:21.079Z,101037.00
2018-12-06T12:57:47.293Z,101039.60
2018-12-06T13:00:13.484Z,101040.03
2018-12-06T13:02:39.533Z,101035.20
2018-12-06T13:05:05.770Z,101038.72
2018-12-06T13:07:31.852Z,101044.84
2018-12-06T13:09:57.970Z,101044.84
2018-12-06T13:12:24.055Z,101038.30
2018-12-06T13:14:50.096Z,101037.00
2018-12-06T13:17:16.197Z,101037.00
2018-12-06T13:19:42.253Z,101035.24
2018-12-06T13:22:08.331Z,101044.87
2018-12-06T13:24:34.580Z,101037.44
2018-12-06T13:27:00.711Z,101047.05
2018-12-06T13:29:26.924Z,101043.13
2018-12-06T13:31:53.093Z,101043.59
2018-12-06T13:34:19.156Z,101044.44
2018-12-06T13:36:45.310Z,101048.36
2018-12-06T13:39:11.379Z,101049.27
2018-12-06T13:41:37.590Z,101045.80
2018-12-06T13:44:03.725Z,101049.74
2018-12-06T13:46:29.808Z,101053.69
2018-12-06T13:48:55.863Z,101052.80
2018-12-06T13:51:21.930Z,101053.28
2018-12-06T13:53:48.022Z,101051.09
2018-12-06T13:56:14.115Z,101051.13
2018-12-06T13:58:40.453Z,101047.21
2018-12-06T14:01:06.710Z,101046.80
2018-12-06T14:03:33.036Z,101050.27
2018-12-06T14:05:59.109Z,101046.37
2018-12-06T14:08:25.178Z,101045.52
2018-12-06T14:10:51.224Z,101050.31
2018-12-06T14:13:23.622Z,101051.63
2018-12-06T14:15:45.557Z,101051.23
2018-12-06T14:18:11.626Z,101056.88
2018-12-06T14:20:37.653Z,101060.83
2018-12-06T14:23:03.748Z,101060.84
2018-12-06T14:25:29.807Z,101058.70
2018-12-06T14:27:55.890Z,101060.86
2018-12-06T14:30:21.953Z,101065.67
2018-12-06T14:32:48.011Z,101060.02
2018-12-06T14:35:14.088Z,101060.45
2018-12-06T14:37:40.215Z,101060.89
2018-12-06T14:40:06.368Z,101067.02
2018-12-06T14:42:32.476Z,101060.05
2018-12-06T14:44:58.559Z,101065.75
2018-12-06T14:47:24.610Z,101064.01
2018-12-06T14:49:50.976Z,101065.33
2018-12-06T14:52:17.004Z,101060.56
2018-12-06T14:54:43.106Z,101061.44
2018-12-06T14:57:09.149Z,101065.36
2018-12-06T14:59:35.569Z,101057.52
2018-12-06T15:02:01.663Z,101054.92
2018-12-06T15:04:27.753Z,101055.82
2018-12-06T15:06:53.825Z,101056.26
2018-12-06T15:09:19.940Z,101052.80
2018-12-06T15:11:46.121Z,101054.14
2018-12-06T15:14:12.229Z,101059.81
2018-12-06T15:16:38.346Z,101058.06
2018-12-06T15:19:04.567Z,101062.88
2018-12-06T15:21:30.679Z,101055.92
2018-12-06T15:23:56.763Z,101058.54
2018-12-06T15:26:22.845Z,101061.16
2018-12-06T15:28:48.888Z,101060.28
2018-12-06T15:31:15.062Z,101064.66
2018-12-06T15:33:41.138Z,101061.63
2018-12-06T15:36:07.211Z,101059.03
2018-12-06T15:38:33.251Z,101054.24
2018-12-06T15:40:59.462Z,101055.56
2018-12-06T15:43:25.531Z,101060.80
2018-12-06T15:45:51.709Z,101055.56
2018-12-06T15:48:17.822Z,101059.51
2018-12-06T15:50:43.962Z,101062.58
2018-12-06T15:53:10.037Z,101066.05
2018-12-06T15:55:36.109Z,101063.90
2018-12-06T15:58:02.197Z,101060.41
2018-12-06T16:00:28.533Z,101065.22
2018-12-06T16:02:54.637Z,101059.12
2018-12-06T16:05:20.637Z,101063.48
2018-12-06T16:07:46.694Z,101066.11
2018-12-06T16:10:12.855Z,101070.47
2018-12-06T16:12:38.984Z,101077.91
2018-12-06T16:15:05.826Z,101074.41
2018-12-06T16:17:31.847Z,101067.47
2018-12-06T16:19:58.001Z,101067.48
2018-12-06T16:22:24.055Z,101072.30
2018-12-06T16:24:50.176Z,101062.28
2018-12-06T16:27:16.372Z,101063.18
2018-12-06T16:29:51.222Z,101061.88
2018-12-06T16:32:10.526Z,101067.97
2018-12-06T16:34:36.590Z,101067.13
2018-12-06T16:37:02.680Z,101065.81
2018-12-06T16:39:28.761Z,101064.48
2018-12-06T16:41:54.879Z,101055.34
2018-12-06T16:44:20.939Z,101056.64
2018-12-06T16:46:47.012Z,101061.88
2018-12-06T16:49:13.070Z,101052.31
2018-12-06T16:51:39.100Z,101057.97
2018-12-06T16:54:05.190Z,101056.69
2018-12-06T16:56:31.216Z,101058.45
2018-12-06T16:58:57.333Z,101055.84
2018-12-06T17:01:23.435Z,101060.19
2018-12-06T17:03:49.487Z,101061.08
2018-12-06T17:06:22.304Z,101063.69
2018-12-06T17:08:48.349Z,101061.92
2018-12-06T17:11:14.543Z,101058.47
2018-12-06T17:13:40.712Z,101061.94
2018-12-06T17:16:06.793Z,101063.24
2018-12-06T17:18:32.829Z,101058.48
2018-12-06T17:20:59.027Z,101060.21
2018-12-06T17:23:25.167Z,101058.02
2018-12-06T17:25:51.233Z,101052.38
2018-12-06T17:28:17.326Z,101048.89
2018-12-06T17:30:43.411Z,101049.77
2018-12-06T17:33:09.496Z,101046.74
2018-12-06T17:35:35.583Z,101048.47
2018-12-06T17:38:01.652Z,101040.21
2018-12-06T17:40:27.748Z,101040.20
2018-12-06T17:42:53.827Z,101037.14
2018-12-06T17:45:19.939Z,101041.95
2018-12-06T17:47:46.015Z,101046.29
2018-12-06T17:50:12.213Z,101042.83
2018-12-06T17:52:38.315Z,101048.48
2018-12-06T17:55:04.817Z,101045.88
2018-12-06T17:57:30.968Z,101047.61
2018-12-06T17:59:57.062Z,101043.70
2018-12-06T18:02:23.267Z,101042.82
2018-12-06T18:04:49.352Z,101043.28
2018-12-06T18:07:15.353Z,101044.59
2018-12-06T18:09:41.572Z,101041.52
2018-12-06T18:12:07.650Z,101048.93
2018-12-06T18:14:33.807Z,101048.51
2018-12-06T18:16:59.876Z,101042.83
2018-12-06T18:19:25.925Z,101046.34
2018-12-06T18:21:52.028Z,101045.45
2018-12-06T18:24:18.790Z,101052.88
2018-12-06T18:26:45.175Z,101048.53
2018-12-06T18:29:11.272Z,101052.88
2018-12-06T18:31:37.301Z,100986.41
2018-12-06T18:34:03.373Z,101058.11
2018-12-06T18:36:29.754Z,101052.48
2018-12-06T18:38:55.813Z,101050.72
2018-12-06T18:41:21.902Z,101052.46
2018-12-06T18:43:48.058Z,101049.01
2018-12-06T18:46:14.119Z,101045.95
2018-12-06T18:48:40.233Z,101039.01
2018-12-06T18:51:06.323Z,100983.38
2018-12-06T18:53:32.504Z,101043.81
2018-12-06T18:55:58.698Z,101040.74
2018-12-06T18:58:24.809Z,101044.66
2018-12-06T19:00:51.003Z,101045.97
2018-12-06T19:03:17.265Z,101051.61
2018-12-06T19:05:43.323Z,101057.71
2018-12-06T19:08:09.471Z,101047.28
2018-12-06T19:10:35.589Z,101049.89
2018-12-06T19:13:01.693Z,101039.88
2018-12-06T19:15:27.843Z,101049.47
2018-12-06T19:17:53.904Z,101038.16
2018-12-06T19:20:20.146Z,101039.88
2018-12-06T19:22:46.226Z,101030.75
2018-12-06T19:25:12.357Z,101031.62
2018-12-06T19:27:38.467Z,101023.38
2018-12-06T19:30:06.990Z,101023.81
2018-12-06T19:32:33.089Z,101029.02
2018-12-06T19:34:59.315Z,101032.05
2018-12-06T19:37:25.405Z,101035.96
2018-12-06T19:39:51.465Z,101028.56
2018-12-06T19:42:17.527Z,101025.95
2018-12-06T19:44:43.619Z,101030.73
2018-12-06T19:47:09.707Z,101028.11
2018-12-06T19:49:35.823Z,101028.98
2018-12-06T19:54:57.692Z,101020.28
2018-12-06T19:57:23.797Z,101022.89
2018-12-06T19:59:49.929Z,101023.31
2018-12-06T20:02:16.076Z,101024.61
2018-12-06T20:04:42.464Z,101025.91
2018-12-06T20:07:08.532Z,101022.88
2018-12-06T20:09:34.645Z,101019.81
2018-12-06T20:12:00.753Z,101020.69
2018-12-06T20:14:26.832Z,101025.48
2018-12-06T20:16:52.922Z,101021.56
2018-12-06T20:19:19.007Z,101028.48
2018-12-06T20:21:45.079Z,101018.48
2018-12-06T20:24:11.236Z,101021.08
2018-12-06T20:26:37.295Z,101015.44
2018-12-06T20:29:03.494Z,101021.95
2018-12-06T20:31:29.532Z,101026.27
2018-12-06T20:33:55.658Z,101027.15
2018-12-06T20:36:21.780Z,101024.97
2018-12-06T20:38:47.916Z,101008.92
2018-12-06T20:41:14.129Z,101011.53
2018-12-06T20:43:40.204Z,101006.33
2018-12-06T20:46:06.301Z,101000.70
2018-12-06T20:48:32.408Z,101010.67
2018-12-06T20:50:58.510Z,101011.13
2018-12-06T20:53:24.723Z,101009.38
2018-12-06T20:55:50.788Z,101000.71
2018-12-06T20:58:16.909Z,100997.66
2018-12-06T21:00:42.996Z,100999.41
2018-12-06T21:03:09.200Z,100995.50
2018-12-06T21:05:35.573Z,100991.13
2018-12-06T21:08:01.640Z,100984.62
2018-12-06T21:10:27.714Z,100969.87
2018-12-06T21:12:53.812Z,100976.37
2018-12-06T21:15:19.959Z,100981.16
2018-12-06T21:17:46.162Z,100985.91
2018-12-06T21:20:12.443Z,100991.58
2018-12-06T21:22:38.540Z,100982.45
2018-12-06T21:25:04.868Z,100985.06
2018-12-06T21:27:30.918Z,100977.66
2018-12-06T21:29:57.012Z,100964.63
2018-12-06T21:35:03.897Z,100971.12
2018-12-06T21:37:29.966Z,100975.04
2018-12-06T21:39:56.055Z,100982.39
2018-12-06T21:42:22.080Z,100985.00
2018-12-06T21:44:48.162Z,100980.24
2018-12-06T21:47:16.262Z,100972.42
2018-12-06T21:49:42.353Z,100969.81
2018-12-06T21:52:08.454Z,100973.70
2018-12-06T21:54:34.547Z,100973.70
2018-12-06T21:57:00.639Z,100975.86
2018-12-06T21:59:26.753Z,100979.34
2018-12-06T22:01:58.646Z,100978.03
2018-12-06T22:04:24.743Z,100962.41
2018-12-06T22:06:50.907Z,100967.20
2018-12-06T22:09:16.955Z,100960.69
2018-12-06T22:11:42.996Z,100956.77
2018-12-06T22:14:09.009Z,100957.19
2018-12-06T22:16:35.084Z,100957.19
2018-12-06T22:19:01.137Z,100953.27
2018-12-06T22:21:27.227Z,100954.09
2018-12-06T22:23:53.304Z,100958.87
2018-12-06T22:26:19.369Z,100959.75
2018-12-06T22:28:45.478Z,100957.97
2018-12-06T22:31:11.606Z,100961.88
2018-12-06T22:33:37.717Z,100962.31
2018-12-06T22:36:03.882Z,100962.70
2018-12-06T22:41:41.192Z,100968.72
2018-12-06T22:44:07.308Z,100971.33
2018-12-06T22:46:33.828Z,100980.01
2018-12-06T22:48:59.932Z,100977.81
2018-12-06T22:54:18.653Z,100977.80
2018-12-06T22:56:44.880Z,100967.38
2018-12-06T22:59:11.031Z,100970.45
2018-12-06T23:01:39.240Z,100975.66
2018-12-06T23:04:05.448Z,100973.05
2018-12-06T23:06:31.489Z,100962.63
2018-12-06T23:08:57.768Z,100959.14
2018-12-06T23:11:23.878Z,100963.92
2018-12-06T23:13:50.016Z,100964.34
2018-12-06T23:16:16.179Z,100959.56
2018-12-06T23:18:42.437Z,100948.31
2018-12-06T23:21:08.679Z,100949.16
2018-12-06T23:23:34.817Z,100952.64
2018-12-06T23:26:00.964Z,100951.34
2018-12-06T23:28:27.059Z,100948.75
2018-12-06T23:30:53.306Z,100947.86
2018-12-06T23:33:19.418Z,100945.70
2018-12-06T23:35:45.593Z,100939.61
2018-12-06T23:38:11.920Z,100940.48
2018-12-06T23:43:30.776Z,100925.70
2018-12-06T23:45:56.992Z,100930.48
2018-12-06T23:51:32.214Z,100926.55
2018-12-06T23:53:58.750Z,100926.53
2018-12-06T23:56:24.943Z,100933.44
2018-12-06T23:58:51.144Z,100932.11
